createdAt,value
2023-04-29T00:01:36.144Z,5.95
2023-04-29T00:04:03.021Z,6.30
2023-04-29T00:06:30.537Z,6.18
2023-04-29T00:08:57.060Z,6.00
2023-04-29T00:11:23.501Z,5.63
2023-04-29T00:13:49.938Z,5.72
2023-04-29T00:16:16.452Z,5.70
2023-04-29T00:18:43.017Z,5.93
2023-04-29T00:21:09.551Z,5.75
2023-04-29T00:23:36.103Z,5.93
2023-04-29T00:26:03.217Z,5.65
2023-04-29T00:28:29.759Z,6.07
2023-04-29T00:30:56.409Z,5.75
2023-04-29T00:33:22.949Z,5.68
2023-04-29T00:35:49.499Z,5.60
2023-04-29T00:38:16.158Z,5.93
2023-04-29T00:40:43.767Z,5.50
2023-04-29T00:43:10.182Z,5.80
2023-04-29T00:45:36.646Z,6.20
2023-04-29T00:48:03.222Z,6.20
2023-04-29T00:50:30.392Z,5.80
2023-04-29T00:52:57.032Z,5.65
2023-04-29T00:55:24.421Z,5.63
2023-04-29T00:57:52.733Z,5.88
2023-04-29T01:00:19.433Z,6.07
2023-04-29T01:02:46.672Z,6.25
2023-04-29T01:05:13.246Z,5.93
2023-04-29T01:08:00.889Z,6.07
2023-04-29T01:10:29.738Z,6.05
2023-04-29T01:13:11.851Z,5.53
2023-04-29T01:15:59.038Z,5.30
2023-04-29T01:18:37.658Z,5.28
2023-04-29T01:21:04.181Z,4.95
2023-04-29T01:23:30.752Z,5.10
2023-04-29T01:25:58.264Z,5.28
2023-04-29T01:28:50.682Z,5.32
2023-04-29T01:31:27.473Z,5.88
2023-04-29T01:34:10.277Z,5.00
2023-04-29T01:36:58.098Z,5.38
2023-04-29T01:39:37.750Z,5.55
2023-04-29T01:42:31.178Z,5.60
2023-04-29T01:45:01.150Z,5.40
2023-04-29T01:47:29.595Z,5.25
2023-04-29T01:49:56.108Z,5.60
2023-04-29T01:52:23.243Z,5.45
2023-04-29T01:54:49.674Z,5.38
2023-04-29T01:57:17.004Z,5.18
2023-04-29T01:59:43.381Z,5.38
2023-04-29T02:02:10.360Z,5.38
2023-04-29T02:04:36.865Z,5.60
2023-04-29T02:07:04.085Z,5.07
2023-04-29T02:09:31.025Z,5.22
2023-04-29T02:11:57.597Z,6.03
2023-04-29T02:14:24.059Z,5.93
2023-04-29T02:16:50.632Z,6.32
2023-04-29T02:19:17.429Z,6.57
2023-04-29T02:21:44.111Z,7.03
2023-04-29T02:24:10.525Z,6.82
2023-04-29T02:26:38.238Z,6.38
2023-04-29T02:29:04.808Z,7.38
2023-04-29T02:31:31.365Z,6.60
2023-04-29T02:33:58.049Z,7.35
2023-04-29T02:36:24.843Z,7.45
2023-04-29T02:38:51.455Z,7.40
2023-04-29T02:41:18.300Z,7.00
2023-04-29T02:43:44.874Z,8.02
2023-04-29T02:46:11.570Z,7.20
2023-04-29T02:48:38.089Z,6.95
2023-04-29T02:51:04.508Z,7.10
2023-04-29T02:53:30.906Z,7.20
2023-04-29T02:55:57.418Z,6.82
2023-04-29T02:58:23.909Z,6.55
2023-04-29T03:00:50.773Z,7.18
2023-04-29T03:03:17.496Z,6.45
2023-04-29T03:05:44.445Z,6.85
2023-04-29T03:08:11.221Z,9.13
2023-04-29T03:10:39.836Z,7.68
2023-04-29T03:13:07.632Z,8.27
2023-04-29T03:15:34.087Z,8.48
2023-04-29T03:18:03.991Z,7.18
2023-04-29T03:20:30.556Z,8.50
2023-04-29T03:22:57.217Z,7.68
2023-04-29T03:25:24.013Z,7.63
2023-04-29T03:27:50.441Z,8.27
2023-04-29T03:30:20.221Z,7.40
2023-04-29T03:32:46.702Z,7.07
2023-04-29T03:35:15.566Z,7.82
2023-04-29T03:37:44.571Z,7.13
2023-04-29T03:40:12.029Z,8.23
2023-04-29T03:42:38.533Z,6.30
2023-04-29T03:45:05.563Z,6.90
2023-04-29T03:47:32.002Z,6.18
2023-04-29T03:49:58.524Z,6.80
2023-04-29T03:52:25.688Z,8.10
2023-04-29T03:54:52.060Z,8.10
2023-04-29T03:57:18.442Z,8.40
2023-04-29T03:59:45.577Z,8.18
2023-04-29T04:02:12.097Z,7.80
2023-04-29T04:04:38.757Z,8.20
2023-04-29T04:07:06.111Z,9.18
2023-04-29T04:09:33.551Z,8.45
2023-04-29T04:12:01.002Z,8.38
2023-04-29T04:14:27.640Z,9.50
2023-04-29T04:16:54.771Z,8.60
2023-04-29T04:19:21.325Z,8.57
2023-04-29T04:21:47.711Z,9.02
2023-04-29T04:24:14.090Z,8.50
2023-04-29T04:26:42.219Z,8.55
2023-04-29T04:29:08.632Z,8.90
2023-04-29T04:31:35.062Z,8.95
2023-04-29T04:34:01.576Z,9.52
2023-04-29T04:36:28.463Z,9.70
2023-04-29T04:38:54.895Z,10.68
2023-04-29T04:41:21.347Z,10.15
2023-04-29T04:43:47.824Z,13.35
2023-04-29T04:46:16.006Z,10.85
2023-04-29T04:48:43.098Z,11.50
2023-04-29T04:51:13.405Z,9.90
2023-04-29T04:53:40.512Z,9.95
2023-04-29T04:56:07.673Z,9.80
2023-04-29T04:58:34.088Z,9.85
2023-04-29T05:01:00.945Z,9.27
2023-04-29T05:03:28.011Z,9.60
2023-04-29T05:05:58.431Z,8.65
2023-04-29T05:08:25.504Z,8.15
2023-04-29T05:10:52.123Z,8.90
2023-04-29T05:13:19.402Z,8.77
2023-04-29T05:15:46.021Z,8.30
2023-04-29T05:18:12.509Z,8.35
2023-04-29T05:20:38.948Z,8.10
2023-04-29T05:23:05.432Z,8.55
2023-04-29T05:25:31.881Z,7.95
2023-04-29T05:27:58.270Z,8.00
2023-04-29T05:30:25.715Z,8.65
2023-04-29T05:32:52.124Z,8.02
2023-04-29T05:35:18.634Z,8.27
2023-04-29T05:37:45.039Z,8.25
2023-04-29T05:40:11.935Z,8.45
2023-04-29T05:42:38.326Z,8.43
2023-04-29T05:45:05.079Z,8.15
2023-04-29T05:47:31.617Z,8.20
2023-04-29T05:49:58.178Z,7.50
2023-04-29T05:52:24.585Z,8.43
2023-04-29T05:54:51.014Z,7.78
2023-04-29T05:57:17.390Z,7.38
2023-04-29T05:59:43.765Z,7.93
2023-04-29T06:02:11.775Z,7.32
2023-04-29T06:04:38.749Z,7.65
2023-04-29T06:07:05.366Z,7.38
2023-04-29T06:09:33.272Z,7.35
2023-04-29T06:11:59.675Z,6.35
2023-04-29T06:14:26.252Z,6.13
2023-04-29T06:16:53.730Z,5.93
2023-04-29T06:19:20.125Z,6.18
2023-04-29T06:21:46.533Z,6.35
2023-04-29T06:24:13.018Z,6.07
2023-04-29T06:26:39.412Z,5.40
2023-04-29T06:29:05.872Z,5.13
2023-04-29T06:31:32.466Z,5.30
2023-04-29T06:33:58.901Z,4.55
2023-04-29T06:36:25.402Z,5.53
2023-04-29T06:38:51.792Z,5.00
2023-04-29T06:41:18.431Z,5.00
2023-04-29T06:43:45.767Z,5.35
2023-04-29T06:46:13.284Z,5.13
2023-04-29T06:48:39.674Z,4.88
2023-04-29T06:51:06.162Z,6.25
2023-04-29T06:53:32.588Z,6.65
2023-04-29T06:55:58.988Z,7.50
2023-04-29T06:58:25.390Z,7.35
2023-04-29T07:00:52.288Z,7.07
2023-04-29T07:03:18.980Z,7.60
2023-04-29T07:05:45.878Z,7.35
2023-04-29T07:08:13.549Z,7.78
2023-04-29T07:10:41.463Z,7.90
2023-04-29T07:13:07.966Z,7.30
2023-04-29T07:15:35.567Z,7.22
2023-04-29T07:18:04.492Z,7.57
2023-04-29T07:20:31.312Z,6.88
2023-04-29T07:22:58.075Z,6.75
2023-04-29T07:25:25.920Z,6.63
2023-04-29T07:27:52.297Z,6.00
2023-04-29T07:30:19.067Z,6.20
2023-04-29T07:32:45.567Z,6.60
2023-04-29T07:35:11.961Z,6.60
2023-04-29T07:37:38.395Z,6.47
2023-04-29T07:40:05.604Z,7.13
2023-04-29T07:42:31.991Z,7.30
2023-04-29T07:44:58.630Z,7.47
2023-04-29T07:47:25.102Z,7.22
2023-04-29T07:49:52.720Z,7.75
2023-04-29T07:52:19.122Z,7.30
2023-04-29T07:54:45.496Z,6.88
2023-04-29T07:57:11.881Z,6.95
2023-04-29T07:59:38.309Z,6.80
2023-04-29T08:02:04.925Z,7.20
2023-04-29T08:04:31.467Z,6.55
2023-04-29T08:07:01.268Z,6.63
2023-04-29T08:09:27.621Z,6.53
2023-04-29T08:11:54.005Z,5.90
2023-04-29T08:14:20.598Z,6.10
2023-04-29T08:16:47.077Z,6.50
2023-04-29T08:19:13.516Z,6.20
2023-04-29T08:21:39.901Z,6.70
2023-04-29T08:24:06.423Z,6.70
2023-04-29T08:26:32.975Z,7.75
2023-04-29T08:29:00.112Z,7.38
2023-04-29T08:31:27.088Z,7.13
2023-04-29T08:33:53.654Z,6.85
2023-04-29T08:36:20.089Z,6.75
2023-04-29T08:38:47.122Z,6.97
2023-04-29T08:41:15.380Z,7.25
2023-04-29T08:43:41.856Z,6.95
2023-04-29T08:46:08.566Z,6.50
2023-04-29T08:48:37.187Z,7.32
2023-04-29T08:51:04.019Z,7.55
2023-04-29T08:53:31.019Z,7.00
2023-04-29T08:56:00.789Z,7.32
2023-04-29T08:58:29.703Z,7.43
2023-04-29T09:00:57.097Z,7.20
2023-04-29T09:03:34.632Z,7.00
2023-04-29T09:06:02.042Z,6.10
2023-04-29T09:08:28.924Z,7.03
2023-04-29T09:10:56.533Z,6.50
2023-04-29T09:13:30.891Z,7.28
2023-04-29T09:15:57.928Z,7.28
2023-04-29T09:18:47.378Z,7.32
2023-04-29T09:21:17.761Z,7.20
2023-04-29T09:23:46.221Z,7.25
2023-04-29T09:26:12.945Z,6.95
2023-04-29T09:28:44.662Z,6.30
2023-04-29T09:31:12.501Z,7.80
2023-04-29T09:33:55.885Z,6.53
2023-04-29T09:36:48.726Z,7.20
2023-04-29T09:39:20.553Z,6.60
2023-04-29T09:41:53.023Z,6.70
2023-04-29T09:44:22.395Z,7.70
2023-04-29T09:47:03.925Z,7.63
2023-04-29T09:49:40.709Z,7.80
2023-04-29T09:52:12.402Z,7.57
2023-04-29T09:54:40.768Z,7.00
2023-04-29T09:57:09.137Z,7.60
2023-04-29T09:59:38.287Z,7.28
2023-04-29T10:02:15.471Z,7.22
2023-04-29T10:04:44.466Z,7.43
2023-04-29T10:07:14.939Z,7.95
2023-04-29T10:09:41.606Z,7.65
2023-04-29T10:12:08.422Z,7.47
2023-04-29T10:14:39.468Z,7.25
2023-04-29T10:17:16.152Z,7.30
2023-04-29T10:19:58.486Z,7.22
2023-04-29T10:22:45.369Z,6.88
2023-04-29T10:25:14.474Z,6.55
2023-04-29T10:27:44.935Z,7.05
2023-04-29T10:30:18.607Z,6.82
2023-04-29T10:35:19.081Z,7.13
2023-04-29T10:37:47.462Z,7.20
2023-04-29T10:40:18.434Z,6.95
2023-04-29T10:42:49.728Z,6.53
2023-04-29T10:45:27.520Z,5.90
2023-04-29T10:48:03.020Z,6.22
2023-04-29T10:50:30.099Z,6.38
2023-04-29T10:52:57.768Z,6.80
2023-04-29T10:55:24.886Z,7.28
2023-04-29T10:57:56.994Z,6.90
2023-04-29T11:00:28.153Z,7.20
2023-04-29T11:02:55.972Z,7.20
2023-04-29T11:05:36.328Z,6.47
2023-04-29T11:10:37.190Z,6.20
2023-04-29T11:13:26.162Z,6.10
2023-04-29T11:15:53.210Z,6.13
2023-04-29T11:18:22.374Z,5.93
2023-04-29T11:21:07.068Z,5.90
2023-04-29T11:23:45.079Z,6.00
2023-04-29T11:26:11.583Z,6.70
2023-04-29T11:28:39.004Z,6.68
2023-04-29T11:31:07.537Z,6.63
2023-04-29T11:33:34.201Z,6.82
2023-04-29T11:36:00.777Z,6.97
2023-04-29T11:38:31.064Z,6.65
2023-04-29T11:43:25.516Z,6.63
2023-04-29T11:45:53.226Z,7.60
2023-04-29T11:48:24.148Z,7.25
2023-04-29T11:50:53.791Z,7.45
2023-04-29T11:53:21.227Z,7.75
2023-04-29T11:55:48.290Z,6.53
2023-04-29T11:58:18.408Z,7.57
2023-04-29T12:03:18.578Z,7.10
2023-04-29T12:05:51.212Z,7.28
2023-04-29T12:08:21.786Z,7.50
2023-04-29T12:10:48.860Z,7.53
2023-04-29T12:13:17.180Z,7.13
2023-04-29T12:15:44.846Z,7.28
2023-04-29T12:18:11.856Z,7.15
2023-04-29T12:20:39.264Z,7.68
2023-04-29T12:23:13.064Z,7.70
2023-04-29T12:25:41.252Z,7.32
2023-04-29T12:28:14.639Z,7.45
2023-04-29T12:30:41.245Z,7.40
2023-04-29T12:33:10.812Z,7.20
2023-04-29T12:35:37.597Z,7.57
2023-04-29T12:38:03.976Z,7.35
2023-04-29T12:40:31.709Z,7.32
2023-04-29T12:42:58.085Z,7.95
2023-04-29T12:45:30.098Z,8.05
2023-04-29T12:47:58.097Z,7.35
2023-04-29T12:50:30.942Z,7.28
2023-04-29T12:52:57.401Z,7.13
2023-04-29T12:55:23.781Z,7.72
2023-04-29T12:57:50.770Z,6.95
2023-04-29T13:00:17.461Z,6.65
2023-04-29T13:02:43.938Z,6.53
2023-04-29T13:05:10.415Z,6.95
2023-04-29T13:07:37.204Z,6.47
2023-04-29T13:10:06.367Z,6.93
2023-04-29T13:12:33.270Z,6.72
2023-04-29T13:15:00.018Z,7.80
2023-04-29T13:17:26.523Z,6.35
2023-04-29T13:19:52.958Z,6.35
2023-04-29T13:22:19.604Z,7.30
2023-04-29T13:24:46.566Z,6.68
2023-04-29T13:27:13.119Z,5.60
2023-04-29T13:29:39.502Z,5.80
2023-04-29T13:32:06.158Z,6.47
2023-04-29T13:34:32.562Z,5.55
2023-04-29T13:36:58.955Z,5.93
2023-04-29T13:39:25.716Z,5.50
2023-04-29T13:41:52.983Z,5.85
2023-04-29T13:44:34.110Z,5.40
2023-04-29T13:47:06.329Z,4.78
2023-04-29T13:57:50.074Z,4.80
2023-04-29T13:59:53.124Z,4.57
2023-04-29T14:04:49.320Z,4.50
2023-04-29T14:07:16.068Z,3.50
2023-04-29T14:09:42.645Z,3.70
2023-04-29T14:12:09.049Z,3.47
2023-04-29T14:14:35.426Z,3.60
2023-04-29T14:17:01.811Z,3.17
2023-04-29T14:19:28.247Z,3.50
2023-04-29T14:21:54.597Z,3.55
2023-04-29T14:24:21.010Z,3.10
2023-04-29T14:26:47.383Z,3.28
2023-04-29T14:29:13.776Z,3.20
2023-04-29T14:31:40.212Z,6.32
2023-04-29T14:34:06.640Z,3.22
2023-04-29T14:36:33.498Z,3.58
2023-04-29T14:39:00.945Z,3.28
2023-04-29T14:41:28.031Z,3.38
2023-04-29T14:43:54.539Z,3.10
2023-04-29T14:46:22.214Z,3.00
2023-04-29T14:48:49.417Z,3.00
2023-04-29T14:51:15.866Z,3.45
2023-04-29T14:53:42.995Z,2.70
2023-04-29T14:56:09.450Z,2.90
2023-04-29T14:58:35.956Z,3.22
2023-04-29T15:01:02.339Z,3.03
2023-04-29T15:03:28.923Z,3.00
2023-04-29T15:05:56.233Z,3.22
2023-04-29T15:08:22.797Z,3.58
2023-04-29T15:10:49.947Z,3.30
2023-04-29T15:13:16.445Z,3.50
2023-04-29T15:15:42.943Z,3.40
2023-04-29T15:18:09.542Z,3.42
2023-04-29T15:20:36.912Z,3.40
2023-04-29T15:23:03.995Z,3.63
2023-04-29T15:25:31.302Z,3.80
2023-04-29T15:27:59.072Z,3.50
2023-04-29T15:30:27.138Z,3.47
2023-04-29T15:32:55.118Z,3.42
2023-04-29T15:35:21.730Z,3.90
2023-04-29T15:37:48.134Z,3.50
2023-04-29T15:40:14.588Z,3.30
2023-04-29T15:42:41.094Z,3.60
2023-04-29T15:45:08.829Z,3.53
2023-04-29T15:47:35.944Z,3.97
2023-04-29T15:50:02.454Z,3.95
2023-04-29T15:52:28.832Z,4.00
2023-04-29T15:54:55.366Z,3.30
2023-04-29T15:57:21.811Z,3.60
2023-04-29T15:59:48.210Z,3.40
2023-04-29T16:02:15.277Z,3.53
2023-04-29T16:04:41.789Z,3.40
2023-04-29T16:07:08.277Z,3.45
2023-04-29T16:09:35.401Z,4.85
2023-04-29T16:12:02.289Z,3.53
2023-04-29T16:14:29.998Z,3.30
2023-04-29T16:16:56.665Z,3.47
2023-04-29T16:19:23.164Z,3.10
2023-04-29T16:21:49.538Z,4.13
2023-04-29T16:24:16.230Z,3.17
2023-04-29T16:26:42.678Z,3.30
2023-04-29T16:29:10.157Z,3.55
2023-04-29T16:31:36.596Z,3.70
2023-04-29T16:34:03.376Z,3.28
2023-04-29T16:36:30.185Z,3.90
2023-04-29T16:38:57.868Z,3.17
2023-04-29T16:41:26.039Z,3.45
2023-04-29T16:43:54.006Z,3.33
2023-04-29T16:46:20.602Z,3.28
2023-04-29T16:48:47.242Z,3.72
2023-04-29T16:51:13.948Z,3.42
2023-04-29T16:53:40.375Z,3.30
2023-04-29T16:56:07.255Z,3.45
2023-04-29T16:58:33.649Z,3.50
2023-04-29T17:01:00.188Z,3.42
2023-04-29T17:03:26.842Z,3.70
2023-04-29T17:05:53.556Z,3.22
2023-04-29T17:08:20.027Z,3.78
2023-04-29T17:10:46.722Z,4.03
2023-04-29T17:13:13.144Z,3.50
2023-04-29T17:15:40.281Z,3.40
2023-04-29T17:18:06.985Z,3.78
2023-04-29T17:20:33.903Z,3.75
2023-04-29T17:23:00.295Z,3.20
2023-04-29T17:25:26.697Z,3.25
2023-04-29T17:27:53.202Z,3.95
2023-04-29T17:30:19.580Z,3.33
2023-04-29T17:32:46.819Z,3.50
2023-04-29T17:35:13.268Z,3.42
2023-04-29T17:37:39.648Z,3.53
2023-04-29T17:40:06.779Z,3.40
2023-04-29T17:42:33.194Z,3.35
2023-04-29T17:44:59.640Z,3.47
2023-04-29T17:47:26.016Z,3.08
2023-04-29T17:49:52.742Z,3.67
2023-04-29T17:52:21.305Z,3.22
2023-04-29T17:54:50.981Z,3.40
2023-04-29T17:57:17.582Z,3.30
2023-04-29T17:59:44.007Z,3.00
2023-04-29T18:02:10.431Z,3.53
2023-04-29T18:04:37.407Z,3.10
2023-04-29T18:07:03.970Z,2.85
2023-04-29T18:09:30.539Z,3.00
2023-04-29T18:11:56.906Z,2.97
2023-04-29T18:14:23.299Z,2.80
2023-04-29T18:16:49.722Z,2.97
2023-04-29T18:19:16.130Z,3.00
2023-04-29T18:21:42.490Z,3.30
2023-04-29T18:24:08.997Z,2.90
2023-04-29T18:26:35.808Z,3.13
2023-04-29T18:29:02.282Z,3.17
2023-04-29T18:31:28.808Z,3.58
2023-04-29T18:33:55.225Z,3.70
2023-04-29T18:36:23.577Z,3.63
2023-04-29T18:38:50.516Z,5.22
2023-04-29T18:41:16.907Z,5.57
2023-04-29T18:43:43.365Z,4.00
2023-04-29T18:46:09.769Z,3.90
2023-04-29T18:48:38.228Z,3.90
2023-04-29T18:51:05.980Z,3.95
2023-04-29T18:53:32.616Z,3.65
2023-04-29T18:55:58.987Z,3.67
2023-04-29T18:58:28.401Z,3.80
2023-04-29T19:00:55.352Z,3.80
2023-04-29T19:03:21.765Z,4.10
2023-04-29T19:05:48.225Z,3.72
2023-04-29T19:08:16.464Z,3.83
2023-04-29T19:10:44.192Z,3.58
2023-04-29T19:13:11.156Z,3.85
2023-04-29T19:15:37.950Z,3.50
2023-04-29T19:18:04.931Z,3.63
2023-04-29T19:20:31.440Z,3.45
2023-04-29T19:22:57.896Z,4.07
2023-04-29T19:25:25.954Z,3.10
2023-04-29T19:27:52.784Z,3.83
2023-04-29T19:30:19.334Z,3.60
2023-04-29T19:32:46.407Z,3.65
2023-04-29T19:35:12.990Z,3.80
2023-04-29T19:37:39.607Z,3.63
2023-04-29T19:40:08.941Z,4.43
2023-04-29T19:42:35.395Z,4.18
2023-04-29T19:45:01.961Z,4.88
2023-04-29T19:47:28.364Z,4.25
2023-04-29T19:49:54.959Z,4.13
2023-04-29T19:52:21.800Z,4.43
2023-04-29T19:54:48.182Z,3.95
2023-04-29T19:57:14.579Z,4.85
2023-04-29T19:59:41.118Z,4.45
2023-04-29T20:02:07.545Z,3.95
2023-04-29T20:04:34.837Z,3.67
2023-04-29T20:07:01.445Z,3.72
2023-04-29T20:09:27.936Z,3.70
2023-04-29T20:11:54.303Z,3.85
2023-04-29T20:14:21.154Z,4.15
2023-04-29T20:16:47.697Z,4.00
2023-04-29T20:19:14.220Z,4.28
2023-04-29T20:21:41.102Z,4.28
2023-04-29T20:24:08.084Z,3.92
2023-04-29T20:26:34.468Z,4.10
2023-04-29T20:29:01.153Z,3.83
2023-04-29T20:31:27.554Z,4.22
2023-04-29T20:33:53.972Z,4.40
2023-04-29T20:36:20.862Z,4.30
2023-04-29T20:38:49.056Z,3.85
2023-04-29T20:41:16.270Z,3.85
2023-04-29T20:43:42.785Z,3.65
2023-04-29T20:46:09.186Z,4.13
2023-04-29T20:48:35.679Z,4.03
2023-04-29T20:51:02.094Z,3.72
2023-04-29T20:53:28.639Z,4.03
2023-04-29T20:55:55.016Z,3.67
2023-04-29T20:58:21.621Z,3.83
2023-04-29T21:00:48.208Z,3.70
2023-04-29T21:03:14.624Z,3.72
2023-04-29T21:05:40.989Z,3.45
2023-04-29T21:08:07.459Z,4.03
2023-04-29T21:10:33.989Z,3.28
2023-04-29T21:13:00.458Z,4.00
2023-04-29T21:15:29.182Z,3.38
2023-04-29T21:17:56.242Z,3.50
2023-04-29T21:20:22.869Z,3.83
2023-04-29T21:22:49.686Z,3.50
2023-04-29T21:25:16.134Z,3.63
2023-04-29T21:27:42.516Z,3.90
2023-04-29T21:30:09.411Z,3.40
2023-04-29T21:32:36.047Z,3.30
2023-04-29T21:35:02.520Z,4.13
2023-04-29T21:37:30.686Z,3.65
2023-04-29T21:39:58.062Z,3.65
2023-04-29T21:42:26.196Z,3.50
2023-04-29T21:44:54.662Z,3.47
2023-04-29T21:47:21.095Z,3.58
2023-04-29T21:49:47.771Z,3.67
2023-04-29T21:52:14.241Z,3.53
2023-04-29T21:54:40.645Z,3.75
2023-04-29T21:57:07.083Z,3.80
2023-04-29T21:59:34.630Z,3.70
2023-04-29T22:02:01.473Z,3.90
2023-04-29T22:04:28.236Z,3.65
2023-04-29T22:06:58.853Z,3.70
2023-04-29T22:09:25.960Z,3.58
2023-04-29T22:11:52.523Z,3.58
2023-04-29T22:14:18.871Z,3.38
2023-04-29T22:16:45.364Z,3.33
2023-04-29T22:19:11.964Z,3.90
2023-04-29T22:21:40.592Z,4.10
2023-04-29T22:24:06.973Z,4.00
2023-04-29T22:26:33.359Z,3.78
2023-04-29T22:28:59.728Z,3.47
2023-04-29T22:31:26.904Z,3.72
2023-04-29T22:33:53.602Z,3.78
2023-04-29T22:36:20.216Z,3.53
2023-04-29T22:38:46.582Z,3.92
2023-04-29T22:41:13.683Z,3.65
2023-04-29T22:43:40.066Z,3.80
2023-04-29T22:46:06.572Z,3.70
2023-04-29T22:48:32.997Z,3.55
2023-04-29T22:50:59.638Z,3.60
2023-04-29T22:53:26.583Z,3.67
2023-04-29T22:55:58.505Z,3.83
2023-04-29T22:58:25.827Z,3.30
2023-04-29T23:00:57.321Z,3.25
2023-04-29T23:03:24.520Z,3.47
2023-04-29T23:05:51.262Z,3.10
2023-04-29T23:08:17.681Z,3.33
2023-04-29T23:10:51.174Z,3.35
2023-04-29T23:13:18.050Z,3.30
2023-04-29T23:15:45.354Z,3.30
2023-04-29T23:18:12.081Z,3.25
2023-04-29T23:20:38.554Z,3.08
2023-04-29T23:23:05.165Z,3.40
2023-04-29T23:25:31.653Z,3.22
2023-04-29T23:27:58.064Z,4.63
2023-04-29T23:30:24.450Z,2.80
2023-04-29T23:32:50.929Z,3.35
2023-04-29T23:35:17.534Z,3.55
2023-04-29T23:37:43.899Z,3.33
2023-04-29T23:40:10.701Z,3.60
2023-04-29T23:42:37.077Z,3.42
2023-04-29T23:45:03.957Z,2.97
2023-04-29T23:47:30.380Z,3.80
2023-04-29T23:49:56.966Z,3.30
2023-04-29T23:52:23.948Z,3.47
2023-04-29T23:54:50.434Z,3.28
2023-04-29T23:57:17.828Z,3.08
2023-04-29T23:59:45.453Z,3.08
